Las Piedras, Puerto Rico
Current Conditions -  °F | °C
As of 10:53 AM on Thursday 30 Oct 2014 (Local Time) from TJNR Reporting Station
Scattered Clouds Scattered Clouds  
Wind Chill: 88°   Ceiling: Unl
Heat Index: 98°   Visibility: 10mi
Dew Point: 75°   Wind: 3mph
Humidity: 65%   Direction: NA
Pressure: 29.88"   Gusts: NA
Location:  18.18°N, 65.87°W
Report Text: TJNR 301453Z AUTO VRB03KT 10SM FEW024 SCT033 SCT050 31/24 A2988 RMK AO2 SLP117 T03110239 50000 $
Loading
Personal Weather Stations






























Interactive Weather Map New forecast layout! Learn more

10-Day Weather Forecast

Advertisements
Track Severe Weather on mobile